Observations for BARCELONA AIRPORT, Spain (LEBL)

LEBL 180700Z 29005KT 240V340 CAVOK 21/14 Q1015 NOSIG
LEBL 180630Z 30005KT 260V340 CAVOK 20/14 Q1015 NOSIG
LEBL 180600Z 31006KT 260V340 CAVOK 19/13 Q1015 NOSIG
LEBL 180530Z 33004KT CAVOK 18/13 Q1015 NOSIG
LEBL 180500Z 31005KT 9999 FEW025 17/13 Q1015 NOSIG  
LEBL 180430Z 30005KT 9999 FEW025 18/13 Q1015 NOSIG  
LEBL 180400Z 31004KT 9999 FEW025 18/13 Q1015 NOSIG  
LEBL 180330Z 31004KT 9999 FEW025 18/13 Q1015 NOSIG  
LEBL 180300Z 30002KT 9999 FEW025 18/12 Q1015 NOSIG  
LEBL 180230Z 30003KT 9999 FEW025 17/12 Q1015 NOSIG  
LEBL 180200Z 31003KT 9999 FEW025 18/12 Q1015 NOSIG  
LEBL 180130Z 31002KT 9999 FEW025 18/13 Q1015 NOSIG  
LEBL 180100Z 28003KT 9999 FEW025 18/16 Q1016 NOSIG  
LEBL 180030Z 27003KT 240V300 9999 FEW025 18/17 Q1016 NOSIG  
LEBL 180000Z 25005KT 220V280 9999 FEW025 18/18 Q1016 NOSIG  
LEBL 172330Z 23006KT CAVOK 19/18 Q1016 NOSIG
LEBL 172300Z 22006KT CAVOK 19/18 Q1016 NOSIG
LEBL 172230Z 22005KT CAVOK 19/18 Q1016 NOSIG
LEBL 172200Z 25007KT CAVOK 19/18 Q1016 NOSIG
LEBL 172130Z 24006KT CAVOK 19/18 Q1016 NOSIG
LEBL 172100Z 22006KT CAVOK 20/18 Q1016 NOSIG
LEBL 172030Z 22006KT CAVOK 20/18 Q1016 NOSIG
LEBL 172000Z 22007KT CAVOK 20/18 Q1016 NOSIG
LEBL 171930Z 22009KT CAVOK 21/17 Q1015 NOSIG
LEBL 171900Z 22011KT CAVOK 21/17 Q1015 NOSIG
LEBL 171830Z 22013KT CAVOK 21/18 Q1015 NOSIG
LEBL 171800Z 21013KT CAVOK 22/18 Q1015 NOSIG
LEBL 171730Z 21013KT CAVOK 22/18 Q1015 NOSIG
LEBL 171700Z 21013KT CAVOK 23/17 Q1015 NOSIG
LEBL 171630Z 21014KT 190V250 CAVOK 23/18 Q1015 NOSIG
LEBL 171600Z 21014KT CAVOK 22/19 Q1015 NOSIG
LEBL 171530Z 21014KT CAVOK 23/18 Q1015 NOSIG
LEBL 171500Z 22016KT CAVOK 23/18 Q1016 NOSIG
LEBL 171430Z 22017KT CAVOK 23/18 Q1016 NOSIG
LEBL 171400Z 22016KT CAVOK 23/18 Q1016 NOSIG
LEBL 171330Z 21015KT 170V240 CAVOK 23/18 Q1016 NOSIG
LEBL 171300Z 21017KT 170V240 CAVOK 22/18 Q1016 NOSIG
LEBL 171230Z 20013KT CAVOK 22/18 Q1016 NOSIG
LEBL 171200Z 19011KT CAVOK 23/17 Q1016 NOSIG
LEBL 171130Z 21010KT 160V220 CAVOK 23/18 Q1016 NOSIG
LEBL 171100Z 22010KT CAVOK 23/16 Q1016 NOSIG
LEBL 171030Z 21009KT 170V240 CAVOK 23/17 Q1016 NOSIG
LEBL 171000Z 20007KT CAVOK 24/17 Q1016 NOSIG
LEBL 170930Z 20007KT 170V240 CAVOK 23/17 Q1017 NOSIG
LEBL 170900Z VRB02KT CAVOK 23/16 Q1017 NOSIG
LEBL 170830Z VRB02KT CAVOK 23/16 Q1017 NOSIG
LEBL 170800Z 28001KT CAVOK 22/17 Q1017 NOSIG
LEBL 170730Z 27004KT 220V300 CAVOK 21/16 Q1017 NOSIG
LEBL 170700Z 28006KT 250V310 CAVOK 20/14 Q1017 NOSIG